Terminal Aerodrome Forecast
Issued by NWS

Home | Current Version | Previous Version | Text Only | Print | Product List | Glossary On
Versions: 1 2 3 4 5 6 7 8 9 10 11 12 13 14 15 16 17 18
000
FTUS44 KEPZ 260528
TAFDMN
TAF
KDMN 260528Z 2606/2706 07010KT P6SM VCTS SCT050CB BKN140 BKN250
      TEMPO 2606/2608 VRB25G38KT 4SM TSRA BKN040CB OVC100
     FM260800 06011KT P6SM VCSH SCT050 BKN100 BKN200
     FM261100 11008KT P6SM SCT060 SCT100 BKN200
     FM261800 12010KT P6SM VCTS SCT060CB SCT120 SCT200=

USA.gov is the U.S. government's official web portal to all federal, state and local government web resources and services.